Time;durP1;ratioP1;P1;durP2;ratioP2;P2;SDS_P1;SDS_P2;PMS_P1;PMS_P2;Temp;Humidity;BMP_temperature;BMP_pressure;BME280_temperature;BME280_humidity;BME280_pressure;Samples;Min_cycle;Max_cycle;Signal;HPM_P1;HPM_P2
2021/08/11 00:00:01;;;;;;;;;;;14.60;95.60;;;;;;5032936;28;20045;-65
2021/08/11 00:02:27;;;;;;;18.00;12.77;;;14.60;95.80;;;;;;5033444;28;19928;-65
2021/08/11 00:04:53;;;;;;;14.90;12.43;;;14.60;95.50;;;;;;5033003;28;20065;-64
2021/08/11 00:07:19;;;;;;;19.10;12.97;;;14.60;95.60;;;;;;5032559;28;20056;-65
2021/08/11 00:09:45;;;;;;;18.07;12.63;;;14.60;95.70;;;;;;5033364;28;20049;-65
2021/08/11 00:12:10;;;;;;;19.23;12.30;;;14.60;95.70;;;;;;5032827;28;20482;-65
2021/08/11 00:14:36;;;;;;;18.70;12.77;;;14.60;95.70;;;;;;5032326;28;20482;-65
2021/08/11 00:17:02;;;;;;;18.67;12.47;;;14.60;95.80;;;;;;5032552;28;20068;-65
2021/08/11 00:19:27;;;;;;;19.07;12.70;;;14.60;95.80;;;;;;5032945;28;20099;-64
2021/08/11 00:21:54;;;;;;;15.90;12.83;;;14.60;95.80;;;;;;5032072;28;20065;-65
2021/08/11 00:24:25;;;;;;;18.27;12.57;;;14.60;95.80;;;;;;5032618;28;20152;-65
2021/08/11 00:26:51;;;;;;;21.20;12.90;;;14.70;95.90;;;;;;5032880;28;20045;-65
2021/08/11 00:29:17;;;;;;;16.57;13.10;;;14.60;95.90;;;;;;5031893;28;20509;-65
2021/08/11 00:31:42;;;;;;;17.83;12.97;;;14.60;95.90;;;;;;5032945;28;20498;-65
2021/08/11 00:34:09;;;;;;;16.10;11.83;;;14.60;95.90;;;;;;5032380;28;20080;-65
2021/08/11 00:36:35;;;;;;;15.80;12.53;;;14.60;96.00;;;;;;5031877;28;20629;-65
2021/08/11 00:39:00;;;;;;;19.63;13.10;;;14.60;96.00;;;;;;5032512;28;20050;-65
2021/08/11 00:41:26;;;;;;;17.83;12.10;;;14.60;96.00;;;;;;5032684;28;20520;-65
2021/08/11 00:43:56;;;;;;;14.53;11.87;;;14.60;96.00;;;;;;5031637;28;20414;-65
2021/08/11 00:46:23;;;;;;;17.43;12.13;;;14.60;96.00;;;;;;5032157;28;20482;-65
2021/08/11 00:48:49;;;;;;;23.70;13.27;;;14.60;96.00;;;;;;5031670;28;20049;-65
2021/08/11 00:51:14;;;;;;;15.17;12.17;;;14.50;96.00;;;;;;5032415;28;20073;-65
2021/08/11 00:53:41;;;;;;;16.83;12.87;;;14.50;96.00;;;;;;5032414;28;20050;-65
2021/08/11 00:56:07;;;;;;;19.63;13.53;;;14.40;96.00;;;;;;5031442;28;20482;-65
2021/08/11 00:58:35;;;;;;;16.93;13.20;;;14.30;96.10;;;;;;5032492;28;20057;-65
2021/08/11 01:01:22;;;;;;;21.17;14.10;;;14.30;96.20;;;;;;5031170;28;20192;-65
2021/08/11 01:03:49;;;;;;;18.37;13.47;;;14.30;96.30;;;;;;5031666;28;20049;-65
2021/08/11 01:06:16;;;;;;;17.27;13.93;;;14.20;96.30;;;;;;5031976;28;20107;-65
2021/08/11 01:08:42;;;;;;;17.93;14.13;;;14.10;96.40;;;;;;5032234;28;20053;-65
2021/08/11 01:11:10;;;;;;;17.03;13.33;;;14.10;96.50;;;;;;5031193;28;20119;-65
2021/08/11 01:13:36;;;;;;;16.87;13.93;;;14.00;96.50;;;;;;5031926;28;20045;-66
2021/08/11 01:16:01;;;;;;;18.80;14.77;;;14.00;96.60;;;;;;5031690;28;20593;-65
2021/08/11 01:18:27;;;;;;;20.50;14.03;;;14.00;96.70;;;;;;5030952;28;20137;-65
2021/08/11 01:20:56;;;;;;;19.63;14.73;;;13.90;96.80;;;;;;5032126;28;20045;-65
2021/08/11 01:23:26;;;;;;;20.20;14.20;;;14.00;96.80;;;;;;5031465;28;20111;-65
2021/08/11 01:26:05;;;;;;;16.27;14.20;;;13.90;96.80;;;;;;5031191;28;20067;-65
2021/08/11 01:28:58;;;;;;;22.23;14.17;;;13.90;96.90;;;;;;5031801;28;20049;-64
2021/08/11 01:31:39;;;;;;;16.93;12.13;;;13.90;96.90;;;;;;5030919;28;20053;-65
2021/08/11 01:34:19;;;;;;;18.05;14.77;;;13.90;97.00;;;;;;5031572;28;20046;-65
2021/08/11 01:36:44;;;;;;;20.30;13.67;;;13.90;97.00;;;;;;5031714;28;20418;-64
2021/08/11 01:39:22;;;;;;;24.10;14.40;;;13.90;97.00;;;;;;5030893;28;20045;-64
2021/08/11 01:41:58;;;;;;;20.70;14.73;;;13.90;97.10;;;;;;5031991;28;20045;-65
2021/08/11 01:44:27;;;;;;;19.30;14.30;;;13.90;97.10;;;;;;5031359;28;20080;-65
2021/08/11 01:46:54;;;;;;;18.73;14.10;;;13.90;97.10;;;;;;5030924;28;20136;-65
2021/08/11 01:49:22;;;;;;;17.07;14.93;;;13.90;97.20;;;;;;5031163;28;20066;-65
2021/08/11 01:51:48;;;;;;;16.83;14.97;;;13.80;97.20;;;;;;5031808;28;20054;-65
2021/08/11 01:54:15;;;;;;;19.17;14.00;;;13.90;97.30;;;;;;5030906;28;20053;-64
2021/08/11 01:56:42;;;;;;;20.87;14.80;;;13.90;97.30;;;;;;5031722;28;20076;-64
2021/08/11 01:59:09;;;;;;;20.93;14.77;;;13.90;97.30;;;;;;5030395;28;20073;-65
2021/08/11 02:01:39;;;;;;;22.83;15.47;;;13.80;97.30;;;;;;5031475;28;20053;-65
2021/08/11 02:04:09;;;;;;;19.47;14.67;;;13.80;97.80;;;;;;5031514;28;20072;-65
2021/08/11 02:06:36;;;;;;;18.57;14.53;;;13.80;97.40;;;;;;5030760;28;20041;-65
2021/08/11 02:09:02;;;;;;;19.30;14.63;;;13.80;97.40;;;;;;5031137;28;20053;-65
2021/08/11 02:11:28;;;;;;;19.80;13.70;;;13.80;97.40;;;;;;5031535;28;20383;-65
2021/08/11 02:13:55;;;;;;;20.60;14.13;;;13.80;97.50;;;;;;5034159;28;20060;-65
2021/08/11 02:16:20;;;;;;;23.17;14.90;;;13.80;97.50;;;;;;5034760;28;20042;-65
2021/08/11 02:18:46;;;;;;;16.33;14.00;;;13.70;97.50;;;;;;5035466;28;20521;-65
2021/08/11 02:21:12;;;;;;;22.37;14.40;;;13.70;97.60;;;;;;5034254;28;20045;-65
2021/08/11 02:23:40;;;;;;;17.70;14.07;;;13.70;97.60;;;;;;5035210;28;20080;-65
2021/08/11 02:26:13;;;;;;;24.87;14.73;;;13.70;97.60;;;;;;5034898;28;20045;-65
2021/08/11 02:28:53;;;;;;;19.33;14.77;;;13.70;97.60;;;;;;5034406;28;20490;-65
2021/08/11 02:31:56;;;;;;;20.07;14.90;;;13.70;97.60;;;;;;5035024;28;20385;-65
2021/08/11 02:35:06;;;;;;;19.77;15.00;;;13.60;97.60;;;;;;5034043;28;20051;-65
2021/08/11 02:37:37;;;;;;;22.57;15.00;;;13.60;97.60;;;;;;5033782;28;20110;-65
2021/08/11 02:40:17;;;;;;;21.83;15.48;;;13.60;97.60;;;;;;5034764;28;20441;-65
2021/08/11 02:42:56;;;;;;;20.27;15.23;;;13.60;97.60;;;;;;5034148;28;20061;-65
2021/08/11 02:45:24;;;;;;;22.57;15.07;;;13.60;97.60;;;;;;5034520;28;20041;-65
2021/08/11 02:47:51;;;;;;;19.40;14.57;;;13.60;97.60;;;;;;5035057;28;20053;-65
2021/08/11 02:50:17;;;;;;;25.57;15.80;;;13.50;97.60;;;;;;5034002;28;20052;-65
2021/08/11 02:52:45;;;;;;;21.77;15.67;;;13.60;97.70;;;;;;5034688;28;20060;-65
2021/08/11 02:55:12;;;;;;;21.00;15.87;;;13.50;97.70;;;;;;5033560;28;20510;-65
2021/08/11 02:57:39;;;;;;;20.53;14.93;;;13.50;97.70;;;;;;5034504;28;20495;-65
2021/08/11 03:00:06;;;;;;;18.63;15.03;;;13.50;97.70;;;;;;5034166;28;20049;-65
2021/08/11 03:02:32;;;;;;;20.73;16.77;;;13.50;97.80;;;;;;5033976;28;20046;-65
2021/08/11 03:04:58;;;;;;;19.47;14.30;;;13.50;97.80;;;;;;5034523;28;20417;-65
2021/08/11 03:07:24;;;;;;;24.47;15.90;;;13.50;97.80;;;;;;5034116;28;20061;-65
2021/08/11 03:09:50;;;;;;;21.53;15.40;;;13.50;97.80;;;;;;5033619;28;20049;-65
2021/08/11 03:12:17;;;;;;;24.23;16.17;;;13.50;97.90;;;;;;5034040;28;20041;-65
2021/08/11 03:14:44;;;;;;;19.60;15.10;;;13.50;97.90;;;;;;5034476;28;20053;-65
2021/08/11 03:17:10;;;;;;;21.13;15.30;;;13.40;97.90;;;;;;5033137;28;20164;-66
2021/08/11 03:19:37;;;;;;;21.93;16.20;;;13.40;97.90;;;;;;5034191;28;20482;-65
2021/08/11 03:22:03;;;;;;;20.77;15.60;;;13.40;98.00;;;;;;5034019;28;20143;-65
2021/08/11 03:24:30;;;;;;;21.67;15.97;;;13.40;98.00;;;;;;5032046;28;20582;-65
2021/08/11 03:26:56;;;;;;;22.83;15.87;;;13.40;98.00;;;;;;5034016;28;20061;-65
2021/08/11 03:29:25;;;;;;;27.07;15.57;;;13.30;98.00;;;;;;5033751;28;20056;-65
2021/08/11 03:31:50;;;;;;;20.43;16.00;;;13.40;98.10;;;;;;5033544;28;20128;-65
2021/08/11 03:34:16;;;;;;;22.80;14.57;;;13.30;98.00;;;;;;5033554;28;20144;-65
2021/08/11 03:36:41;;;;;;;19.67;14.87;;;13.30;98.00;;;;;;5034041;28;20088;-66
2021/08/11 03:39:07;;;;;;;20.77;15.93;;;13.20;98.10;;;;;;5032846;28;20512;-65
2021/08/11 03:41:33;;;;;;;22.67;15.57;;;13.20;98.20;;;;;;5033761;28;20064;-65
2021/08/11 03:43:58;;;;;;;20.07;15.57;;;13.20;98.20;;;;;;5033851;28;20049;-65
2021/08/11 03:46:24;;;;;;;20.03;15.77;;;13.30;98.30;;;;;;5032796;28;20088;-65
2021/08/11 03:48:50;;;;;;;22.13;15.67;;;13.20;98.20;;;;;;5033615;28;20141;-65
2021/08/11 03:51:15;;;;;;;21.03;15.63;;;13.30;98.30;;;;;;5033437;28;20053;-65
2021/08/11 03:53:41;;;;;;;20.03;15.13;;;13.30;98.30;;;;;;5032772;28;20107;-65
2021/08/11 03:56:07;;;;;;;24.50;16.13;;;13.40;98.30;;;;;;5033245;28;20048;-65
2021/08/11 03:58:34;;;;;;;23.30;15.77;;;13.40;98.30;;;;;;5032721;28;20053;-66
2021/08/11 04:00:59;;;;;;;21.03;15.47;;;13.40;98.30;;;;;;5033375;28;20048;-65
2021/08/11 04:03:25;;;;;;;21.77;15.67;;;13.40;98.20;;;;;;5033703;28;20049;-65
2021/08/11 04:05:51;;;;;;;21.70;15.13;;;13.40;98.20;;;;;;5032999;28;20049;-65
2021/08/11 04:08:16;;;;;;;20.77;15.97;;;13.40;98.10;;;;;;5032990;28;20053;-65
2021/08/11 04:10:45;;;;;;;21.30;15.73;;;13.40;98.10;;;;;;5033330;28;20045;-65
2021/08/11 04:13:14;;;;;;;22.73;15.77;;;13.40;98.10;;;;;;5032657;28;20045;-65
2021/08/11 04:15:44;;;;;;;19.87;16.30;;;13.40;98.10;;;;;;5033317;28;20049;-65
2021/08/11 04:18:10;;;;;;;24.20;16.07;;;13.40;98.10;;;;;;5032495;28;20083;-65
2021/08/11 04:20:39;;;;;;;20.73;14.93;;;13.40;98.20;;;;;;5032408;28;20057;-65
2021/08/11 04:23:05;;;;;;;22.67;16.73;;;13.40;98.20;;;;;;5032454;28;20049;-65
2021/08/11 04:25:36;;;;;;;21.90;15.27;;;13.30;98.20;;;;;;5032689;28;20506;-65
2021/08/11 04:28:03;;;;;;;20.00;15.23;;;13.30;98.20;;;;;;5031907;28;20148;-65
2021/08/11 04:30:28;;;;;;;21.80;15.23;;;13.30;98.20;;;;;;5032946;28;20056;-65
2021/08/11 04:32:54;;;;;;;25.60;16.00;;;13.30;98.20;;;;;;5032736;28;20128;-64
2021/08/11 04:35:19;;;;;;;21.83;16.07;;;13.30;98.20;;;;;;5031602;28;20053;-64
2021/08/11 04:37:45;;;;;;;22.70;16.00;;;13.30;98.30;;;;;;5032722;28;20124;-64
2021/08/11 04:40:11;;;;;;;20.03;16.57;;;13.30;98.30;;;;;;5032358;28;20052;-64
2021/08/11 04:42:38;;;;;;;20.27;16.20;;;13.30;98.30;;;;;;5032309;28;20053;-64
2021/08/11 04:45:04;;;;;;;20.83;16.13;;;13.30;98.30;;;;;;5032209;28;20442;-64
2021/08/11 04:47:30;;;;;;;19.23;15.50;;;13.30;98.30;;;;;;5032592;28;20045;-64
2021/08/11 04:49:56;;;;;;;17.43;15.00;;;13.30;98.30;;;;;;5031596;28;20060;-64
2021/08/11 04:52:22;;;;;;;25.30;16.87;;;13.30;98.30;;;;;;5032054;28;20049;-64
2021/08/11 04:54:47;;;;;;;19.50;17.03;;;13.30;98.30;;;;;;5031514;28;20050;-64
2021/08/11 04:57:13;;;;;;;20.50;15.73;;;13.30;98.30;;;;;;5032165;28;20141;-64
2021/08/11 04:59:39;;;;;;;21.20;16.20;;;13.30;98.30;;;;;;5032625;28;20417;-64
2021/08/11 05:02:07;;;;;;;23.17;15.53;;;13.30;98.30;;;;;;5031270;28;20069;-64
2021/08/11 05:04:32;;;;;;;19.50;15.57;;;13.30;98.40;;;;;;5031925;28;20463;-65
2021/08/11 05:07:04;;;;;;;21.37;15.07;;;13.30;98.30;;;;;;5031560;28;20046;-65
2021/08/11 05:09:32;;;;;;;20.03;16.33;;;13.30;98.40;;;;;;5031451;28;20053;-65
2021/08/11 05:11:58;;;;;;;21.13;15.67;;;13.30;98.40;;;;;;5032121;28;20092;-65
2021/08/11 05:14:23;;;;;;;21.00;16.30;;;13.30;98.40;;;;;;5031897;28;20132;-64
2021/08/11 05:16:49;;;;;;;23.27;16.10;;;13.40;98.40;;;;;;5031163;28;20410;-65
2021/08/11 05:19:15;;;;;;;22.40;16.43;;;13.30;98.40;;;;;;5031793;28;20045;-64
2021/08/11 05:21:40;;;;;;;22.60;17.37;;;13.40;98.40;;;;;;5031724;28;20030;-65
2021/08/11 05:24:06;;;;;;;20.70;16.03;;;13.40;98.40;;;;;;5030907;28;20136;-64
2021/08/11 05:26:32;;;;;;;21.17;15.90;;;13.40;98.40;;;;;;5032240;28;20513;-65
2021/08/11 05:28:59;;;;;;;19.43;15.70;;;13.40;98.50;;;;;;5031841;28;20080;-65
2021/08/11 05:31:24;;;;;;;20.33;15.50;;;13.50;98.50;;;;;;5031044;28;20053;-65
2021/08/11 05:33:50;;;;;;;20.20;16.30;;;13.50;98.50;;;;;;5031810;28;20060;-65
2021/08/11 05:36:16;;;;;;;24.40;17.30;;;13.60;98.60;;;;;;5031403;28;20045;-65
2021/08/11 05:38:41;;;;;;;20.60;16.37;;;13.60;98.50;;;;;;5031470;28;20077;-65
2021/08/11 05:41:07;;;;;;;22.93;16.63;;;13.70;98.50;;;;;;5031648;28;20045;-64
2021/08/11 05:43:33;;;;;;;21.40;15.03;;;13.70;98.40;;;;;;5031781;28;20103;-64
2021/08/11 05:45:59;;;;;;;20.57;14.97;;;13.90;98.90;;;;;;5030977;28;20045;-64
2021/08/11 05:48:25;;;;;;;20.73;15.87;;;14.20;99.20;;;;;;5031073;28;20128;-64
2021/08/11 05:50:51;;;;;;;18.83;14.67;;;14.50;98.50;;;;;;5031281;28;20045;-64
2021/08/11 05:53:17;;;;;;;21.07;16.10;;;14.60;98.00;;;;;;5030775;28;20132;-64
2021/08/11 05:55:42;;;;;;;18.83;14.23;;;14.60;97.70;;;;;;5031720;28;20049;-63
2021/08/11 05:58:10;;;;;;;15.90;14.23;;;14.60;97.60;;;;;;5030490;28;20332;-64
2021/08/11 06:00:36;;;;;;;16.57;14.13;;;14.50;97.50;;;;;;5031682;28;20049;-64
2021/08/11 06:03:02;;;;;;;18.00;14.27;;;14.50;97.40;;;;;;5030964;28;20054;-65
2021/08/11 06:05:27;;;;;;;18.00;14.10;;;14.50;97.70;;;;;;5030631;28;20077;-64
2021/08/11 06:07:56;;;;;;;16.10;14.40;;;14.60;98.00;;;;;;5031593;28;20045;-65
2021/08/11 06:10:22;;;;;;;16.87;13.50;;;14.70;97.70;;;;;;5031166;28;20053;-64
2021/08/11 06:12:52;;;;;;;19.07;13.97;;;14.70;97.90;;;;;;5030889;28;20039;-64
2021/08/11 06:15:18;;;;;;;15.67;12.07;;;14.70;97.30;;;;;;5031218;28;20343;-64
2021/08/11 06:17:49;;;;;;;16.90;13.87;;;14.70;97.10;;;;;;5031314;28;20057;-64
2021/08/11 06:20:17;;;;;;;18.17;14.60;;;14.70;97.00;;;;;;5029809;28;20418;-65
2021/08/11 06:22:43;;;;;;;17.77;14.73;;;14.70;96.90;;;;;;5031336;28;20050;-64
2021/08/11 06:25:11;;;;;;;16.23;14.33;;;14.60;96.80;;;;;;5030850;28;20073;-64
2021/08/11 06:27:37;;;;;;;18.93;15.00;;;14.60;97.10;;;;;;5035778;28;20079;-64
2021/08/11 06:30:04;;;;;;;20.27;14.50;;;14.60;96.50;;;;;;5040516;28;20471;-64
2021/08/11 06:32:30;;;;;;;18.30;14.03;;;14.60;96.50;;;;;;5039314;28;20486;-64
2021/08/11 06:34:56;;;;;;;15.97;13.53;;;14.60;96.50;;;;;;5040459;28;20124;-64
2021/08/11 06:37:25;;;;;;;18.63;14.60;;;14.60;96.60;;;;;;5040506;28;20124;-64
2021/08/11 06:39:50;;;;;;;19.27;13.27;;;14.60;96.50;;;;;;5039321;28;20057;-64
2021/08/11 06:42:16;;;;;;;18.00;14.03;;;14.70;97.00;;;;;;5040140;28;20118;-64
2021/08/11 06:44:42;;;;;;;17.57;14.00;;;14.70;96.60;;;;;;5040607;28;20050;-65
2021/08/11 06:47:07;;;;;;;16.53;13.57;;;14.80;96.50;;;;;;5039075;28;20398;-65
2021/08/11 06:49:33;;;;;;;14.80;13.03;;;14.90;96.80;;;;;;5038615;28;20573;-64
2021/08/11 06:51:59;;;;;;;18.20;13.00;;;15.10;96.20;;;;;;5040541;28;20394;-64
2021/08/11 06:54:24;;;;;;;15.70;12.30;;;15.20;96.00;;;;;;5040395;28;20107;-65
2021/08/11 06:56:50;;;;;;;15.80;12.10;;;15.30;95.80;;;;;;5039640;28;20033;-66
2021/08/11 06:59:16;;;;;;;13.03;11.30;;;15.40;95.70;;;;;;5043389;28;20055;-64
2021/08/11 07:01:42;;;;;;;12.60;10.63;;;15.50;95.70;;;;;;5043568;28;20045;-66
2021/08/11 07:04:07;;;;;;;15.63;11.50;;;15.50;95.50;;;;;;5043111;28;20052;-66
2021/08/11 07:06:33;;;;;;;15.57;10.77;;;15.60;95.30;;;;;;5044900;28;20045;-66
2021/08/11 07:08:59;;;;;;;12.70;10.70;;;15.70;95.00;;;;;;5043147;28;20099;-65
2021/08/11 07:11:24;;;;;;;16.77;10.40;;;15.70;94.90;;;;;;5048373;28;20493;-65
2021/08/11 07:13:50;;;;;;;12.10;10.07;;;15.80;94.90;;;;;;5054233;28;20063;-64
2021/08/11 07:16:16;;;;;;;11.57;9.10;;;15.90;94.80;;;;;;5052448;28;20045;-65
2021/08/11 07:18:42;;;;;;;14.67;10.63;;;16.00;94.80;;;;;;5053896;28;20052;-64
2021/08/11 07:21:09;;;;;;;15.00;9.80;;;16.10;94.70;;;;;;5053471;28;20056;-65
2021/08/11 07:23:35;;;;;;;11.80;9.30;;;16.20;94.70;;;;;;5053147;28;20077;-64
2021/08/11 07:26:01;;;;;;;13.10;8.30;;;16.30;94.60;;;;;;5053786;28;20076;-65
2021/08/11 07:28:28;;;;;;;12.83;8.63;;;16.40;94.40;;;;;;5053904;28;20056;-65
2021/08/11 07:30:53;;;;;;;12.87;8.17;;;16.40;94.10;;;;;;5052977;28;20048;-65
2021/08/11 07:33:19;;;;;;;11.10;7.53;;;16.50;93.90;;;;;;5053659;28;20110;-65
2021/08/11 07:35:45;;;;;;;10.73;6.93;;;16.60;93.70;;;;;;5053914;28;20442;-65
2021/08/11 07:38:10;;;;;;;9.17;6.77;;;16.70;93.40;;;;;;5052778;28;20489;-65
2021/08/11 07:40:41;;;;;;;11.77;6.80;;;16.70;93.10;;;;;;5053759;28;20060;-65
2021/08/11 07:43:07;;;;;;;11.25;7.63;;;16.90;92.70;;;;;;5053449;28;20045;-65
2021/08/11 07:45:34;;;;;;;10.73;6.50;;;17.10;92.30;;;;;;5052992;28;20061;-65
2021/08/11 07:48:00;;;;;;;12.53;6.93;;;17.20;91.90;;;;;;5053375;28;20083;-66
2021/08/11 07:50:30;;;;;;;10.57;6.43;;;17.20;91.60;;;;;;5053634;28;20045;-65
2021/08/11 07:52:56;;;;;;;10.97;6.43;;;17.30;91.60;;;;;;5052676;28;20144;-65
2021/08/11 07:55:23;;;;;;;9.57;5.93;;;17.30;91.60;;;;;;5053255;28;20139;-65
2021/08/11 07:57:49;;;;;;;7.87;5.50;;;17.40;91.60;;;;;;5052502;28;20049;-65
2021/08/11 08:00:16;;;;;;;9.87;6.07;;;17.50;91.50;;;;;;5052793;28;20045;-65
2021/08/11 08:02:42;;;;;;;10.53;6.40;;;17.60;91.10;;;;;;5053191;28;20049;-65
2021/08/11 08:05:08;;;;;;;9.40;5.80;;;17.70;90.90;;;;;;5052013;28;20127;-65
2021/08/11 08:07:34;;;;;;;11.27;5.70;;;17.90;90.80;;;;;;5052865;28;20045;-65
2021/08/11 08:10:02;;;;;;;9.37;5.17;;;18.00;90.70;;;;;;5051907;28;20045;-65
2021/08/11 08:12:28;;;;;;;9.53;5.37;;;18.10;90.50;;;;;;5052360;28;20501;-66
2021/08/11 08:14:54;;;;;;;9.87;5.97;;;18.20;90.30;;;;;;5053305;28;20051;-65
2021/08/11 08:17:19;;;;;;;10.93;5.83;;;18.30;90.00;;;;;;5052422;28;20548;-65
2021/08/11 08:19:45;;;;;;;9.67;5.83;;;18.30;90.00;;;;;;5052268;28;20053;-64
2021/08/11 08:22:17;;;;;;;8.27;5.30;;;18.40;89.40;;;;;;5052351;28;20045;-65
2021/08/11 08:24:46;;;;;;;10.63;5.87;;;18.50;89.10;;;;;;5052984;28;20471;-66
2021/08/11 08:27:12;;;;;;;10.50;5.43;;;18.70;88.40;;;;;;5051678;28;20045;-66
2021/08/11 08:29:39;;;;;;;8.23;5.90;;;18.80;88.20;;;;;;5052874;28;20057;-65
2021/08/11 08:32:05;;;;;;;7.53;5.03;;;19.00;88.20;;;;;;5052608;28;20045;-65
2021/08/11 08:34:30;;;;;;;8.50;5.10;;;19.20;87.80;;;;;;5052126;28;20073;-65
2021/08/11 08:36:56;;;;;;;8.43;5.07;;;19.30;86.50;;;;;;5052542;28;20079;-65
2021/08/11 08:39:21;;;;;;;8.10;5.73;;;19.40;85.80;;;;;;5051837;28;20052;-65
2021/08/11 08:41:48;;;;;;;9.93;5.00;;;19.50;85.70;;;;;;5051160;28;20052;-65
2021/08/11 08:44:14;;;;;;;10.40;5.33;;;19.50;85.20;;;;;;5052009;28;20068;-65
2021/08/11 08:46:43;;;;;;;8.13;4.80;;;19.60;84.20;;;;;;5052062;28;20069;-65
2021/08/11 08:49:15;;;;;;;6.77;4.30;;;19.60;84.00;;;;;;5051050;28;20374;-65
2021/08/11 08:51:48;;;;;;;7.37;4.47;;;19.70;83.70;;;;;;5051732;28;20136;-65
2021/08/11 08:54:20;;;;;;;8.83;4.47;;;19.80;82.70;;;;;;5050962;28;20048;-66
2021/08/11 08:56:46;;;;;;;9.17;4.97;;;19.90;81.00;;;;;;5051930;28;20135;-65
2021/08/11 08:59:12;;;;;;;9.05;4.22;;;20.00;80.70;;;;;;5051694;28;20150;-65
2021/08/11 09:01:37;;;;;;;7.50;4.80;;;20.10;80.40;;;;;;5051096;28;20053;-65
2021/08/11 09:04:03;;;;;;;7.60;4.87;;;20.20;80.10;;;;;;5051653;28;20053;-65
2021/08/11 09:06:33;;;;;;;9.13;4.70;;;20.30;79.70;;;;;;5051640;28;20112;-64
2021/08/11 09:09:07;;;;;;;9.85;4.30;;;20.30;79.00;;;;;;5051116;28;20060;-65
2021/08/11 09:11:34;;;;;;;6.65;4.82;;;20.30;79.50;;;;;;5052073;28;20041;-66
2021/08/11 09:14:24;;;;;;;8.43;5.35;;;20.40;79.50;;;;;;5051623;28;20053;-66
2021/08/11 09:16:53;;;;;;;9.18;4.72;;;20.50;78.00;;;;;;5050899;28;20404;-66
2021/08/11 09:19:19;;;;;;;8.30;4.28;;;20.60;78.60;;;;;;5051538;28;20044;-65
2021/08/11 09:22:06;;;;;;;8.55;4.65;;;20.80;79.00;;;;;;5050844;28;20049;-65
2021/08/11 09:24:35;;;;;;;8.38;4.72;;;21.00;79.30;;;;;;5051605;28;20052;-65
2021/08/11 09:27:23;;;;;;;9.65;4.85;;;21.30;79.60;;;;;;5051456;28;20048;-66
2021/08/11 09:30:11;;;;;;;7.97;4.93;;;21.50;77.60;;;;;;5050555;28;20102;-65
2021/08/11 09:33:04;;;;;;;7.50;4.43;;;21.60;75.80;;;;;;5051829;28;20517;-65
2021/08/11 09:35:35;;;;;;;7.53;4.47;;;21.60;75.10;;;;;;5051723;28;20055;-65
2021/08/11 09:38:06;;;;;;;8.18;4.40;;;21.60;76.60;;;;;;5050406;28;20041;-65
2021/08/11 09:40:35;;;;;;;8.45;4.35;;;21.60;76.50;;;;;;5051705;28;20157;-66
2021/08/11 09:43:10;;;;;;;7.93;4.40;;;21.60;76.10;;;;;;5050605;28;20494;-65
2021/08/11 09:45:45;;;;;;;8.05;3.92;;;21.60;74.60;;;;;;5050588;28;20052;-65
2021/08/11 09:48:11;;;;;;;9.05;4.47;;;21.50;74.80;;;;;;5050121;28;20090;-65
2021/08/11 09:50:46;;;;;;;6.65;4.20;;;21.50;74.60;;;;;;5049789;28;20052;-66
2021/08/11 09:53:14;;;;;;;6.25;4.10;;;21.40;73.50;;;;;;5050215;28;20040;-66
2021/08/11 09:55:55;;;;;;;9.02;4.68;;;21.40;73.20;;;;;;5050400;28;20056;-66
2021/08/11 09:58:20;;;;;;;7.63;4.40;;;21.40;73.50;;;;;;5049549;28;20080;-66
2021/08/11 10:00:46;;;;;;;6.97;4.13;;;21.40;73.40;;;;;;5051239;28;20102;-66
2021/08/11 10:03:12;;;;;;;7.75;4.45;;;21.30;73.40;;;;;;5051160;28;20128;-67
2021/08/11 10:05:38;;;;;;;7.88;4.25;;;21.30;73.00;;;;;;5050646;28;20057;-66
2021/08/11 10:08:05;;;;;;;8.63;4.88;;;21.20;73.10;;;;;;5051124;28;20041;-66
2021/08/11 10:10:46;;;;;;;7.05;4.30;;;21.20;73.40;;;;;;5051135;28;20457;-66
2021/08/11 10:13:16;;;;;;;5.88;4.10;;;21.20;73.30;;;;;;5050118;28;20486;-66
2021/08/11 10:15:44;;;;;;;7.78;4.68;;;21.20;74.10;;;;;;5051239;28;20501;-67
2021/08/11 10:18:12;;;;;;;8.02;4.43;;;21.30;73.80;;;;;;5050362;28;20061;-66
2021/08/11 10:20:40;;;;;;;7.85;4.53;;;21.30;73.40;;;;;;5050831;28;20126;-66
2021/08/11 10:23:06;;;;;;;6.70;4.28;;;21.40;73.50;;;;;;5050641;28;20111;-66
2021/08/11 10:25:31;;;;;;;6.68;4.25;;;21.40;73.20;;;;;;5050731;28;20455;-66
2021/08/11 10:27:57;;;;;;;8.35;4.70;;;21.50;73.40;;;;;;5050885;28;20470;-66
2021/08/11 10:30:25;;;;;;;9.60;4.32;;;21.60;72.60;;;;;;5051328;28;20473;-66
2021/08/11 10:32:51;;;;;;;8.35;4.35;;;21.70;72.40;;;;;;5050802;28;20091;-66
2021/08/11 10:35:17;;;;;;;8.07;4.53;;;21.70;72.10;;;;;;5054429;28;20049;-66
2021/08/11 10:37:44;;;;;;;6.97;4.45;;;21.70;72.20;;;;;;5055177;28;20120;-67
2021/08/11 10:40:10;;;;;;;7.60;4.18;;;21.80;72.80;;;;;;5053942;28;20110;-66
2021/08/11 10:42:36;;;;;;;7.75;4.38;;;21.90;71.40;;;;;;5054643;28;20049;-66
2021/08/11 10:45:02;;;;;;;9.00;4.40;;;21.90;71.30;;;;;;5054387;28;20052;-66
2021/08/11 10:47:35;;;;;;;11.75;4.45;;;22.10;71.60;;;;;;5054303;28;20052;-67
2021/08/11 10:50:04;;;;;;;9.80;4.10;;;22.10;69.80;;;;;;5054071;28;20061;-66
2021/08/11 10:52:31;;;;;;;7.70;4.63;;;22.20;70.40;;;;;;5054188;28;20128;-66
2021/08/11 10:55:01;;;;;;;8.68;4.75;;;22.20;69.70;;;;;;5053099;28;20053;-66
2021/08/11 10:57:35;;;;;;;5.97;3.70;;;22.30;69.90;;;;;;5054452;28;20115;-66
2021/08/11 11:00:08;;;;;;;7.82;4.03;;;22.20;70.20;;;;;;5054188;28;20053;-66
2021/08/11 11:02:44;;;;;;;9.13;4.40;;;22.20;70.50;;;;;;5053657;28;20110;-66
2021/08/11 11:05:26;;;;;;;8.05;4.00;;;22.20;70.40;;;;;;5054062;28;20060;-67
2021/08/11 11:08:13;;;;;;;10.07;4.57;;;22.40;69.50;;;;;;5053654;28;20041;-67
2021/08/11 11:10:48;;;;;;;7.53;4.35;;;22.50;68.50;;;;;;5054245;28;20053;-66
2021/08/11 11:13:23;;;;;;;5.85;4.15;;;22.60;69.10;;;;;;5053487;28;20486;-67
2021/08/11 11:15:48;;;;;;;6.90;4.30;;;22.70;68.60;;;;;;5053093;28;20045;-67
2021/08/11 11:18:24;;;;;;;6.97;4.07;;;22.80;69.10;;;;;;5053252;28;20097;-66
2021/08/11 11:20:59;;;;;;;7.57;4.13;;;22.90;68.80;;;;;;5054126;28;20496;-66
2021/08/11 11:23:36;;;;;;;7.88;3.88;;;23.00;68.50;;;;;;5052957;28;20182;-66
2021/08/11 11:26:12;;;;;;;6.57;3.90;;;23.10;69.70;;;;;;5053434;28;20140;-67
2021/08/11 11:29:00;;;;;;;6.53;3.83;;;23.20;68.10;;;;;;5053017;28;20048;-67
2021/08/11 11:31:53;;;;;;;7.05;4.07;;;23.40;64.80;;;;;;5053931;28;20083;-67
2021/08/11 11:34:19;;;;;;;7.95;4.13;;;23.50;64.90;;;;;;5044541;28;20440;-66
2021/08/11 11:36:57;;;;;;;8.73;5.00;;;23.50;65.60;;;;;;5052625;28;20056;-66
2021/08/11 11:39:24;;;;;;;7.32;4.00;;;23.60;65.70;;;;;;5053049;28;20381;-67
2021/08/11 11:44:41;;;;;;;6.95;4.50;;;23.70;64.80;;;;;;5052028;28;20065;-66
2021/08/11 11:47:08;;;;;;;6.25;4.00;;;23.80;65.20;;;;;;5052731;28;20103;-66
2021/08/11 11:49:34;;;;;;;6.88;4.22;;;23.70;64.80;;;;;;5053221;28;20505;-66
2021/08/11 11:52:01;;;;;;;9.98;5.30;;;23.60;66.00;;;;;;5052156;28;20045;-67
2021/08/11 11:54:27;;;;;;;8.48;4.60;;;23.70;65.10;;;;;;5053559;28;20125;-67
2021/08/11 11:56:54;;;;;;;6.40;4.13;;;23.70;64.90;;;;;;5052308;28;20103;-66
2021/08/11 11:59:23;;;;;;;8.20;5.25;;;23.80;65.50;;;;;;5052751;28;20052;-66
2021/08/11 12:01:50;;;;;;;6.90;3.88;;;23.90;64.90;;;;;;5053166;28;20513;-66
2021/08/11 12:04:24;;;;;;;8.20;3.60;;;24.10;64.30;;;;;;5051945;28;20048;-65
2021/08/11 12:06:50;;;;;;;5.72;4.30;;;24.20;63.30;;;;;;5053148;28;20076;-66
2021/08/11 12:09:15;;;;;;;10.05;4.47;;;24.30;63.40;;;;;;5052763;28;20061;-65
2021/08/11 12:11:41;;;;;;;7.45;4.07;;;24.40;63.10;;;;;;5052114;28;20045;-65
2021/08/11 12:14:07;;;;;;;5.18;4.00;;;24.40;63.10;;;;;;5050851;28;20107;-65
2021/08/11 12:16:40;;;;;;;8.70;3.55;;;24.50;63.20;;;;;;5052918;28;20099;-66
2021/08/11 12:19:13;;;;;;;7.32;4.47;;;24.60;63.40;;;;;;5051751;28;20076;-66
2021/08/11 12:21:40;;;;;;;4.90;3.65;;;24.80;62.50;;;;;;5052383;28;20049;-65
2021/08/11 12:24:05;;;;;;;7.85;3.72;;;24.80;62.10;;;;;;5052135;28;20057;-65
2021/08/11 12:26:34;;;;;;;6.40;3.85;;;24.90;61.20;;;;;;5051902;28;20048;-66
2021/08/11 12:29:00;;;;;;;8.05;3.88;;;24.80;60.70;;;;;;5052313;28;20040;-65
2021/08/11 12:31:33;;;;;;;6.32;3.60;;;24.80;60.30;;;;;;5052802;28;20118;-65
2021/08/11 12:34:00;;;;;;;5.03;3.63;;;24.80;61.60;;;;;;5051681;28;20068;-65
2021/08/11 12:36:30;;;;;;;6.60;4.00;;;24.80;60.80;;;;;;5052252;28;20126;-65
2021/08/11 12:38:59;;;;;;;5.72;3.90;;;24.90;60.40;;;;;;5051423;28;20446;-66
2021/08/11 12:41:26;;;;;;;6.57;3.97;;;24.90;59.90;;;;;;5051668;28;20041;-65
2021/08/11 12:43:55;;;;;;;5.75;3.60;;;25.00;59.60;;;;;;5052231;28;20052;-65